Terminal Aerodrome Forecast
Issued by NWS

Home | Current Version | Previous Version | Text Only | Print | Product List | Glossary On
Versions: 1 2 3 4 5 6 7 8 9 10 11 12 13 14 15 16 17
000
FTUS44 KLZK 221700
TAFBPK
TAF
KBPK 221732Z 2218/2318 VRB03KT P6SM SCT030
     FM230000 17003KT P6SM SCT250
      TEMPO 2310/2314 4SM -TSRA SCT050CB OVC250
     FM231400 36005KT 4SM BR VCTS SCT050CB OVC100
      TEMPO 2314/2318 2SM -TSRA BKN030CB=

USA.gov is the U.S. government's official web portal to all federal, state and local government web resources and services.